sensor_id;sensor_type;location;lat;lon;timestamp;pressure;altitude;pressure_sealevel;temperature;humidity
77263;BME280;66373;52.334;4.806;2023-06-24T00:00:55;102382.03;;;24.81;47.61
77263;BME280;66373;52.334;4.806;2023-06-24T00:03:23;102386.25;;;24.88;47.85
77263;BME280;66373;52.334;4.806;2023-06-24T00:05:50;102389.00;;;24.83;47.93
77263;BME280;66373;52.334;4.806;2023-06-24T00:08:19;102397.69;;;24.87;48.06
77263;BME280;66373;52.334;4.806;2023-06-24T00:10:48;102392.50;;;24.84;47.67
77263;BME280;66373;52.334;4.806;2023-06-24T00:13:16;102377.00;;;24.72;47.74
77263;BME280;66373;52.334;4.806;2023-06-24T00:15:43;102391.66;;;24.82;47.62
77263;BME280;66373;52.334;4.806;2023-06-24T00:18:10;102390.84;;;24.80;48.12
77263;BME280;66373;52.334;4.806;2023-06-24T00:20:38;102395.25;;;24.79;47.87
77263;BME280;66373;52.334;4.806;2023-06-24T00:23:09;102394.38;;;24.79;48.12
77263;BME280;66373;52.334;4.806;2023-06-24T00:25:35;102399.69;;;24.77;48.47
77263;BME280;66373;52.334;4.806;2023-06-24T00:28:03;102397.91;;;24.78;48.19
77263;BME280;66373;52.334;4.806;2023-06-24T00:30:31;102397.97;;;24.75;47.82
77263;BME280;66373;52.334;4.806;2023-06-24T00:32:58;102398.91;;;24.72;47.97
77263;BME280;66373;52.334;4.806;2023-06-24T00:35:25;102385.97;;;24.64;48.05
77263;BME280;66373;52.334;4.806;2023-06-24T00:37:53;102396.31;;;24.70;48.08
77263;BME280;66373;52.334;4.806;2023-06-24T00:40:24;102391.97;;;24.69;48.62
77263;BME280;66373;52.334;4.806;2023-06-24T00:42:51;102388.59;;;24.64;48.31
77263;BME280;66373;52.334;4.806;2023-06-24T00:45:19;102380.78;;;24.61;48.43
77263;BME280;66373;52.334;4.806;2023-06-24T00:47:48;102395.59;;;24.65;48.37
77263;BME280;66373;52.334;4.806;2023-06-24T00:50:15;102390.34;;;24.65;48.60
77263;BME280;66373;52.334;4.806;2023-06-24T00:52:43;102373.72;;;24.63;48.47
77263;BME280;66373;52.334;4.806;2023-06-24T00:55:12;102357.34;;;24.51;48.48
77263;BME280;66373;52.334;4.806;2023-06-24T00:57:42;102370.25;;;24.61;48.57
77263;BME280;66373;52.334;4.806;2023-06-24T01:00:10;102381.69;;;24.60;48.39
77263;BME280;66373;52.334;4.806;2023-06-24T01:02:40;102378.22;;;24.58;48.46
77263;BME280;66373;52.334;4.806;2023-06-24T01:05:08;102375.59;;;24.58;48.24
77263;BME280;66373;52.334;4.806;2023-06-24T01:07:38;102368.75;;;24.51;48.80
77263;BME280;66373;52.334;4.806;2023-06-24T01:10:06;102373.94;;;24.54;48.74
77263;BME280;66373;52.334;4.806;2023-06-24T01:12:36;102375.72;;;24.52;48.75
77263;BME280;66373;52.334;4.806;2023-06-24T01:15:05;102374.13;;;24.45;48.70
77263;BME280;66373;52.334;4.806;2023-06-24T01:17:36;102373.31;;;24.43;48.91
77263;BME280;66373;52.334;4.806;2023-06-24T01:20:08;102383.69;;;24.49;48.78
77263;BME280;66373;52.334;4.806;2023-06-24T01:25:43;102378.53;;;24.45;48.79
77263;BME280;66373;52.334;4.806;2023-06-24T01:28:33;102382.94;;;24.44;48.80
77263;BME280;66373;52.334;4.806;2023-06-24T01:31:28;102383.03;;;24.41;48.96
77263;BME280;66373;52.334;4.806;2023-06-24T01:34:01;102385.66;;;24.41;48.55
77263;BME280;66373;52.334;4.806;2023-06-24T01:36:34;102383.03;;;24.41;48.77
77263;BME280;66373;52.334;4.806;2023-06-24T01:39:06;102380.44;;;24.40;48.91
77263;BME280;66373;52.334;4.806;2023-06-24T01:41:39;102374.44;;;24.33;49.13
77263;BME280;66373;52.334;4.806;2023-06-24T01:44:09;102371.81;;;24.33;48.73
77263;BME280;66373;52.334;4.806;2023-06-24T01:46:41;102369.16;;;24.34;48.76
77263;BME280;66373;52.334;4.806;2023-06-24T01:49:12;102359.69;;;24.26;48.88
77263;BME280;66373;52.334;4.806;2023-06-24T01:51:41;102372.78;;;24.29;48.63
77263;BME280;66373;52.334;4.806;2023-06-24T01:54:13;102375.34;;;24.32;48.79
77263;BME280;66373;52.334;4.806;2023-06-24T01:56:43;102351.97;;;24.17;49.01
77263;BME280;66373;52.334;4.806;2023-06-24T01:59:10;102371.00;;;24.29;48.75
77263;BME280;66373;52.334;4.806;2023-06-24T02:01:40;102377.13;;;24.30;49.13
77263;BME280;66373;52.334;4.806;2023-06-24T02:04:08;102369.34;;;24.24;48.85
77263;BME280;66373;52.334;4.806;2023-06-24T02:06:38;102353.72;;;24.18;49.03
77263;BME280;66373;52.334;4.806;2023-06-24T02:09:07;102364.09;;;24.24;48.63
77263;BME280;66373;52.334;4.806;2023-06-24T02:11:35;102360.63;;;24.22;48.80
77263;BME280;66373;52.334;4.806;2023-06-24T02:14:04;102348.38;;;24.21;48.96
77263;BME280;66373;52.334;4.806;2023-06-24T02:16:35;102346.66;;;24.20;49.20
77263;BME280;66373;52.334;4.806;2023-06-24T02:19:04;102345.03;;;24.16;49.01
77263;BME280;66373;52.334;4.806;2023-06-24T02:21:34;102344.25;;;24.11;48.68
77263;BME280;66373;52.334;4.806;2023-06-24T02:24:02;102345.03;;;24.16;48.72
77263;BME280;66373;52.334;4.806;2023-06-24T02:26:31;102328.66;;;24.03;48.99
77263;BME280;66373;52.334;4.806;2023-06-24T02:28:59;102348.63;;;24.12;48.69
77263;BME280;66373;52.334;4.806;2023-06-24T02:31:26;102355.66;;;24.10;48.84
77263;BME280;66373;52.334;4.806;2023-06-24T02:33:54;102348.69;;;24.09;49.09
77263;BME280;66373;52.334;4.806;2023-06-24T02:36:22;102351.34;;;24.07;48.79
77263;BME280;66373;52.334;4.806;2023-06-24T02:38:49;102351.44;;;24.02;48.91
77263;BME280;66373;52.334;4.806;2023-06-24T02:41:16;102342.66;;;24.03;48.79
77263;BME280;66373;52.334;4.806;2023-06-24T02:43:45;102345.25;;;24.05;48.60
77263;BME280;66373;52.334;4.806;2023-06-24T02:46:13;102335.69;;;24.01;48.84
77263;BME280;66373;52.334;4.806;2023-06-24T02:48:42;102340.03;;;24.03;48.51
77263;BME280;66373;52.334;4.806;2023-06-24T02:51:10;102341.81;;;24.01;48.97
77263;BME280;66373;52.334;4.806;2023-06-24T02:53:39;102336.59;;;24.00;48.66
77263;BME280;66373;52.334;4.806;2023-06-24T02:56:11;102347.16;;;23.98;48.65
77263;BME280;66373;52.334;4.806;2023-06-24T02:58:42;102334.91;;;23.97;48.57
77263;BME280;66373;52.334;4.806;2023-06-24T03:01:17;102327.97;;;23.93;49.05
77263;BME280;66373;52.334;4.806;2023-06-24T03:03:53;102320.22;;;23.89;48.99
77263;BME280;66373;52.334;4.806;2023-06-24T03:06:20;102322.72;;;23.93;48.77
77263;BME280;66373;52.334;4.806;2023-06-24T03:08:51;102319.41;;;23.85;48.91
77263;BME280;66373;52.334;4.806;2023-06-24T03:11:21;102310.78;;;23.80;48.69
77263;BME280;66373;52.334;4.806;2023-06-24T03:13:49;102326.34;;;23.89;48.77
77263;BME280;66373;52.334;4.806;2023-06-24T03:16:33;102312.59;;;23.77;48.83
77263;BME280;66373;52.334;4.806;2023-06-24T03:19:06;102338.66;;;23.87;48.68
77263;BME280;66373;52.334;4.806;2023-06-24T03:21:33;102334.28;;;23.86;48.75
77263;BME280;66373;52.334;4.806;2023-06-24T03:24:08;102337.81;;;23.85;48.93
77263;BME280;66373;52.334;4.806;2023-06-24T03:29:09;102317.00;;;23.75;49.05
77263;BME280;66373;52.334;4.806;2023-06-24T03:31:41;102335.25;;;23.82;48.96
77263;BME280;66373;52.334;4.806;2023-06-24T03:34:11;102341.41;;;23.81;48.83
77263;BME280;66373;52.334;4.806;2023-06-24T03:36:39;102329.28;;;23.74;48.72
77263;BME280;66373;52.334;4.806;2023-06-24T03:39:08;102344.03;;;23.81;48.65
77263;BME280;66373;52.334;4.806;2023-06-24T03:44:02;102345.88;;;23.76;48.83
77263;BME280;66373;52.334;4.806;2023-06-24T03:46:30;102346.78;;;23.75;48.76
77263;BME280;66373;52.334;4.806;2023-06-24T03:49:02;102346.81;;;23.74;48.60
77263;BME280;66373;52.334;4.806;2023-06-24T03:51:29;102340.75;;;23.70;48.87
77263;BME280;66373;52.334;4.806;2023-06-24T03:53:57;102348.56;;;23.73;48.79
77263;BME280;66373;52.334;4.806;2023-06-24T03:56:28;102355.63;;;23.71;48.75
77263;BME280;66373;52.334;4.806;2023-06-24T03:58:55;102351.28;;;23.70;48.90
77263;BME280;66373;52.334;4.806;2023-06-24T04:01:25;102344.41;;;23.64;49.08
77263;BME280;66373;52.334;4.806;2023-06-24T04:03:52;102323.59;;;23.54;49.02
77263;BME280;66373;52.334;4.806;2023-06-24T04:06:19;102335.72;;;23.61;49.02
77263;BME280;66373;52.334;4.806;2023-06-24T04:08:46;102347.06;;;23.63;48.97
77263;BME280;66373;52.334;4.806;2023-06-24T04:11:14;102340.09;;;23.60;48.92
77263;BME280;66373;52.334;4.806;2023-06-24T04:13:43;102347.88;;;23.65;48.96
77263;BME280;66373;52.334;4.806;2023-06-24T04:16:11;102330.59;;;23.52;48.80
77263;BME280;66373;52.334;4.806;2023-06-24T04:18:38;102347.13;;;23.60;48.73
77263;BME280;66373;52.334;4.806;2023-06-24T04:21:06;102339.31;;;23.57;48.82
77263;BME280;66373;52.334;4.806;2023-06-24T04:23:33;102346.28;;;23.58;48.82
77263;BME280;66373;52.334;4.806;2023-06-24T04:26:00;102351.47;;;23.61;49.09
77263;BME280;66373;52.334;4.806;2023-06-24T04:28:27;102359.38;;;23.59;48.89
77263;BME280;66373;52.334;4.806;2023-06-24T04:30:56;102358.53;;;23.59;49.09
77263;BME280;66373;52.334;4.806;2023-06-24T04:33:23;102357.66;;;23.58;49.04
77263;BME280;66373;52.334;4.806;2023-06-24T04:35:51;102354.19;;;23.56;49.10
77263;BME280;66373;52.334;4.806;2023-06-24T04:38:19;102348.06;;;23.56;48.98
77263;BME280;66373;52.334;4.806;2023-06-24T04:40:47;102336.09;;;23.40;48.78
77263;BME280;66373;52.334;4.806;2023-06-24T04:43:14;102360.38;;;23.54;49.01
77263;BME280;66373;52.334;4.806;2023-06-24T04:45:41;102350.00;;;23.45;49.39
77263;BME280;66373;52.334;4.806;2023-06-24T04:48:10;102360.41;;;23.51;49.16
77263;BME280;66373;52.334;4.806;2023-06-24T04:50:37;102368.28;;;23.52;49.48
77263;BME280;66373;52.334;4.806;2023-06-24T04:53:04;102372.63;;;23.52;49.17
77263;BME280;66373;52.334;4.806;2023-06-24T04:55:31;102353.59;;;23.41;49.14
77263;BME280;66373;52.334;4.806;2023-06-24T04:57:58;102363.91;;;23.50;49.43
77263;BME280;66373;52.334;4.806;2023-06-24T05:00:25;102369.16;;;23.50;49.24
77263;BME280;66373;52.334;4.806;2023-06-24T05:02:52;102372.69;;;23.49;49.44
77263;BME280;66373;52.334;4.806;2023-06-24T05:05:20;102364.91;;;23.44;49.42
77263;BME280;66373;52.334;4.806;2023-06-24T05:07:48;102370.03;;;23.50;49.64
77263;BME280;66373;52.334;4.806;2023-06-24T05:10:15;102361.44;;;23.42;49.29
77263;BME280;66373;52.334;4.806;2023-06-24T05:12:45;102374.44;;;23.48;49.68
77263;BME280;66373;52.334;4.806;2023-06-24T05:15:12;102371.81;;;23.48;49.46
77263;BME280;66373;52.334;4.806;2023-06-24T05:17:39;102357.09;;;23.40;49.55
77263;BME280;66373;52.334;4.806;2023-06-24T05:20:07;102369.22;;;23.47;49.63
77263;BME280;66373;52.334;4.806;2023-06-24T05:22:36;102374.44;;;23.50;49.79
77263;BME280;66373;52.334;4.806;2023-06-24T05:25:03;102378.00;;;23.46;49.51
77263;BME280;66373;52.334;4.806;2023-06-24T05:27:30;102382.31;;;23.50;49.26
77263;BME280;66373;52.334;4.806;2023-06-24T05:29:57;102378.78;;;23.51;49.56
77263;BME280;66373;52.334;4.806;2023-06-24T05:32:24;102376.22;;;23.48;49.58
77263;BME280;66373;52.334;4.806;2023-06-24T05:34:53;102382.28;;;23.51;49.65
77263;BME280;66373;52.334;4.806;2023-06-24T05:37:20;102304.47;;;23.02;49.71
77263;BME280;66373;52.334;4.806;2023-06-24T05:39:50;102392.75;;;23.54;49.55
77263;BME280;66373;52.334;4.806;2023-06-24T05:42:17;102394.44;;;23.58;49.67
77263;BME280;66373;52.334;4.806;2023-06-24T05:44:47;102390.97;;;23.56;49.44
77263;BME280;66373;52.334;4.806;2023-06-24T05:47:14;102369.22;;;23.47;49.21
77263;BME280;66373;52.334;4.806;2023-06-24T05:49:41;102390.88;;;23.61;49.43
77263;BME280;66373;52.334;4.806;2023-06-24T05:52:08;102385.69;;;23.58;48.99
77263;BME280;66373;52.334;4.806;2023-06-24T05:54:35;102389.06;;;23.64;49.25
77263;BME280;66373;52.334;4.806;2023-06-24T05:57:04;102392.59;;;23.63;49.15
77263;BME280;66373;52.334;4.806;2023-06-24T05:59:31;102393.47;;;23.62;49.62
77263;BME280;66373;52.334;4.806;2023-06-24T06:01:59;102397.78;;;23.65;49.47
77263;BME280;66373;52.334;4.806;2023-06-24T06:04:27;102396.81;;;23.69;49.30
77263;BME280;66373;52.334;4.806;2023-06-24T06:06:54;102391.56;;;23.69;49.45
77263;BME280;66373;52.334;4.806;2023-06-24T06:09:22;102390.69;;;23.70;49.23
77263;BME280;66373;52.334;4.806;2023-06-24T06:11:48;102394.13;;;23.74;49.15
77263;BME280;66373;52.334;4.806;2023-06-24T06:14:17;102391.44;;;23.77;49.12
77263;BME280;66373;52.334;4.806;2023-06-24T06:16:44;102400.13;;;23.80;49.24
77263;BME280;66373;52.334;4.806;2023-06-24T06:19:11;102380.06;;;23.75;49.49
77263;BME280;66373;52.334;4.806;2023-06-24T06:21:38;102391.31;;;23.83;49.34
77263;BME280;66373;52.334;4.806;2023-06-24T06:24:06;102392.06;;;23.89;49.08
77263;BME280;66373;52.334;4.806;2023-06-24T06:26:33;102390.31;;;23.88;48.96
77263;BME280;66373;52.334;4.806;2023-06-24T06:29:00;102399.03;;;23.90;48.95
77263;BME280;66373;52.334;4.806;2023-06-24T06:31:28;102388.75;;;23.80;49.24
77263;BME280;66373;52.334;4.806;2023-06-24T06:33:55;102391.28;;;23.84;49.05
77263;BME280;66373;52.334;4.806;2023-06-24T06:36:22;102395.47;;;23.91;49.39
77263;BME280;66373;52.334;4.806;2023-06-24T06:38:49;102390.31;;;23.88;49.80
77263;BME280;66373;52.334;4.806;2023-06-24T06:41:16;102389.53;;;23.83;49.76
77263;BME280;66373;52.334;4.806;2023-06-24T06:43:49;102392.09;;;23.86;49.69
77263;BME280;66373;52.334;4.806;2023-06-24T06:48:44;102391.06;;;23.93;49.75
77263;BME280;66373;52.334;4.806;2023-06-24T06:51:12;102389.44;;;23.88;49.51
77263;BME280;66373;52.334;4.806;2023-06-24T06:53:39;102397.94;;;24.00;49.44
77263;BME280;66373;52.334;4.806;2023-06-24T06:56:06;102397.84;;;24.03;49.25
77263;BME280;66373;52.334;4.806;2023-06-24T06:58:33;102397.81;;;24.07;49.02
77263;BME280;66373;52.334;4.806;2023-06-24T07:01:00;102387.53;;;23.94;49.90
77263;BME280;66373;52.334;4.806;2023-06-24T07:03:30;102404.91;;;24.01;49.55
77263;BME280;66373;52.334;4.806;2023-06-24T07:05:59;102403.06;;;24.07;49.56
77263;BME280;66373;52.334;4.806;2023-06-24T07:08:26;102404.78;;;24.08;49.68
77263;BME280;66373;52.334;4.806;2023-06-24T07:10:53;102390.69;;;24.12;49.63
77263;BME280;66373;52.334;4.806;2023-06-24T07:13:20;102393.25;;;24.15;49.42
77263;BME280;66373;52.334;4.806;2023-06-24T07:15:47;102393.09;;;24.21;49.21
77263;BME280;66373;52.334;4.806;2023-06-24T07:18:14;102384.47;;;24.16;49.82
77263;BME280;66373;52.334;4.806;2023-06-24T07:20:41;102391.28;;;24.23;49.37
77263;BME280;66373;52.334;4.806;2023-06-24T07:23:09;102381.72;;;24.19;49.59
77263;BME280;66373;52.334;4.806;2023-06-24T07:25:37;102388.00;;;24.15;49.74
77263;BME280;66373;52.334;4.806;2023-06-24T07:28:04;102362.41;;;24.21;49.40
77263;BME280;66373;52.334;4.806;2023-06-24T07:30:31;102382.28;;;24.34;49.31
77263;BME280;66373;52.334;4.806;2023-06-24T07:32:58;102374.53;;;24.28;49.94
77263;BME280;66373;52.334;4.806;2023-06-24T07:35:31;102386.69;;;24.34;49.59
77263;BME280;66373;52.334;4.806;2023-06-24T07:37:58;102372.78;;;24.29;49.61
77263;BME280;66373;52.334;4.806;2023-06-24T07:40:26;102386.75;;;24.31;49.89
77263;BME280;66373;52.334;4.806;2023-06-24T07:42:53;102388.44;;;24.35;49.86
77263;BME280;66373;52.334;4.806;2023-06-24T07:45:20;102390.03;;;24.42;49.91
77263;BME280;66373;52.334;4.806;2023-06-24T07:47:47;102384.81;;;24.39;49.86
77263;BME280;66373;52.334;4.806;2023-06-24T07:50:14;102374.50;;;24.30;49.80
77263;BME280;66373;52.334;4.806;2023-06-24T07:52:41;102384.91;;;24.36;49.89
77263;BME280;66373;52.334;4.806;2023-06-24T07:55:08;102389.06;;;24.45;49.93
77263;BME280;66373;52.334;4.806;2023-06-24T07:57:37;102396.91;;;24.46;49.76
77263;BME280;66373;52.334;4.806;2023-06-24T08:00:07;102360.59;;;24.25;49.71
77263;BME280;66373;52.334;4.806;2023-06-24T08:02:38;102393.38;;;24.47;49.86
77263;BME280;66373;52.334;4.806;2023-06-24T08:05:06;102386.47;;;24.43;50.22
77263;BME280;66373;52.334;4.806;2023-06-24T08:07:34;102369.03;;;24.39;50.10
77263;BME280;66373;52.334;4.806;2023-06-24T08:10:02;102375.13;;;24.41;50.25
77263;BME280;66373;52.334;4.806;2023-06-24T08:12:32;102394.00;;;24.58;49.47
77263;BME280;66373;52.334;4.806;2023-06-24T08:15:01;102374.13;;;24.45;49.99
77263;BME280;66373;52.334;4.806;2023-06-24T08:17:28;102394.00;;;24.58;50.09
77263;BME280;66373;52.334;4.806;2023-06-24T08:19:55;102382.44;;;24.65;49.92
77263;BME280;66373;52.334;4.806;2023-06-24T08:22:22;102375.44;;;24.64;49.70
77263;BME280;66373;52.334;4.806;2023-06-24T08:24:49;102369.50;;;24.56;50.34
77263;BME280;66373;52.334;4.806;2023-06-24T08:27:16;102380.53;;;24.70;49.74
77263;BME280;66373;52.334;4.806;2023-06-24T08:29:43;102390.97;;;24.74;50.28
77263;BME280;66373;52.334;4.806;2023-06-24T08:32:11;102367.41;;;24.69;50.20
77263;BME280;66373;52.334;4.806;2023-06-24T08:34:38;102379.47;;;24.78;50.04
77263;BME280;66373;52.334;4.806;2023-06-24T08:37:05;102390.84;;;24.80;49.64
77263;BME280;66373;52.334;4.806;2023-06-24T08:39:32;102380.25;;;24.83;49.81
77263;BME280;66373;52.334;4.806;2023-06-24T08:41:59;102381.25;;;24.77;50.37
77263;BME280;66373;52.334;4.806;2023-06-24T08:44:27;102376.84;;;24.78;50.20
77263;BME280;66373;52.334;4.806;2023-06-24T08:46:54;102386.09;;;24.94;49.99
77263;BME280;66373;52.334;4.806;2023-06-24T08:49:28;102379.94;;;24.95;49.50
77263;BME280;66373;52.334;4.806;2023-06-24T08:52:00;102377.34;;;24.93;50.02
77263;BME280;66373;52.334;4.806;2023-06-24T08:54:35;102387.91;;;24.92;50.15
77263;BME280;66373;52.334;4.806;2023-06-24T08:57:04;102361.63;;;24.90;49.70
77263;BME280;66373;52.334;4.806;2023-06-24T08:59:33;102390.09;;;25.10;49.67
77263;BME280;66373;52.334;4.806;2023-06-24T09:02:03;102388.50;;;25.03;50.25
77263;BME280;66373;52.334;4.806;2023-06-24T09:04:31;102365.88;;;24.96;50.39
77263;BME280;66373;52.334;4.806;2023-06-24T09:06:58;102387.31;;;25.16;49.71
77263;BME280;66373;52.334;4.806;2023-06-24T09:09:25;102387.25;;;25.18;50.00
77263;BME280;66373;52.334;4.806;2023-06-24T09:11:54;102384.00;;;25.08;50.26
77263;BME280;66373;52.334;4.806;2023-06-24T09:14:22;102363.91;;;25.04;49.98
77263;BME280;66373;52.334;4.806;2023-06-24T09:16:53;102382.84;;;25.18;50.43
77263;BME280;66373;52.334;4.806;2023-06-24T09:19:21;102387.16;;;25.21;50.53
77263;BME280;66373;52.334;4.806;2023-06-24T09:21:49;102367.13;;;25.15;50.08
77263;BME280;66373;52.334;4.806;2023-06-24T09:24:17;102373.31;;;25.14;50.46
77263;BME280;66373;52.334;4.806;2023-06-24T09:26:44;102379.41;;;25.16;50.17
77263;BME280;66373;52.334;4.806;2023-06-24T09:29:12;102394.25;;;25.19;50.87
77263;BME280;66373;52.334;4.806;2023-06-24T09:31:47;102386.22;;;25.23;50.25
77263;BME280;66373;52.334;4.806;2023-06-24T09:34:15;102388.84;;;25.23;50.83
77263;BME280;66373;52.334;4.806;2023-06-24T09:36:43;102373.78;;;25.28;50.23
77263;BME280;66373;52.334;4.806;2023-06-24T09:39:12;102371.06;;;25.31;49.78
77263;BME280;66373;52.334;4.806;2023-06-24T09:41:43;102377.94;;;25.37;50.08
77263;BME280;66373;52.334;4.806;2023-06-24T09:44:11;102350.34;;;25.19;49.99
77263;BME280;66373;52.334;4.806;2023-06-24T09:46:38;102382.00;;;25.49;50.29
77263;BME280;66373;52.334;4.806;2023-06-24T09:49:19;102369.84;;;25.45;50.51
77263;BME280;66373;52.334;4.806;2023-06-24T09:51:49;102364.59;;;25.43;50.28
77263;BME280;66373;52.334;4.806;2023-06-24T09:54:18;102385.53;;;25.48;50.39
77263;BME280;66373;52.334;4.806;2023-06-24T09:56:49;102361.88;;;25.46;50.00
77263;BME280;66373;52.334;4.806;2023-06-24T09:59:19;102353.00;;;25.49;49.92
77263;BME280;66373;52.334;4.806;2023-06-24T10:01:48;102377.28;;;25.60;50.26
77263;BME280;66373;52.334;4.806;2023-06-24T10:04:17;102364.38;;;25.51;50.22
77263;BME280;66373;52.334;4.806;2023-06-24T10:06:45;102363.38;;;25.55;50.31
77263;BME280;66373;52.334;4.806;2023-06-24T10:09:13;102376.03;;;25.73;49.57
77263;BME280;66373;52.334;4.806;2023-06-24T10:11:47;102356.72;;;25.73;50.32
77263;BME280;66373;52.334;4.806;2023-06-24T10:14:15;102341.22;;;25.62;49.79
77263;BME280;66373;52.334;4.806;2023-06-24T10:16:42;102332.44;;;25.63;49.50
77263;BME280;66373;52.334;4.806;2023-06-24T10:19:09;102353.06;;;25.78;49.80
77263;BME280;66373;52.334;4.806;2023-06-24T10:21:47;102362.69;;;25.79;49.79
77263;BME280;66373;52.334;4.806;2023-06-24T10:24:31;102338.44;;;25.68;49.63
77263;BME280;66373;52.334;4.806;2023-06-24T10:27:05;102351.97;;;25.85;49.49
77263;BME280;66373;52.334;4.806;2023-06-24T10:29:36;102300.53;;;25.72;49.18
77263;BME280;66373;52.334;4.806;2023-06-24T10:32:06;102333.44;;;25.88;49.18
77263;BME280;66373;52.334;4.806;2023-06-24T10:34:39;102328.28;;;25.84;49.22
77263;BME280;66373;52.334;4.806;2023-06-24T10:37:09;102333.47;;;25.87;49.25
77263;BME280;66373;52.334;4.806;2023-06-24T10:39:51;102332.56;;;25.88;48.90
77263;BME280;66373;52.334;4.806;2023-06-24T10:42:39;102323.59;;;25.93;49.03
77263;BME280;66373;52.334;4.806;2023-06-24T10:45:19;102333.94;;;25.99;49.41
77263;BME280;66373;52.334;4.806;2023-06-24T10:47:48;102324.78;;;25.83;49.84
77263;BME280;66373;52.334;4.806;2023-06-24T10:50:19;102341.75;;;26.02;49.70
77263;BME280;66373;52.334;4.806;2023-06-24T10:52:50;102340.56;;;26.13;49.45
77263;BME280;66373;52.334;4.806;2023-06-24T10:55:22;102325.66;;;26.12;49.81
77263;BME280;66373;52.334;4.806;2023-06-24T10:57:51;102321.53;;;26.03;49.43
77263;BME280;66373;52.334;4.806;2023-06-24T11:00:21;102329.06;;;26.15;49.30
77263;BME280;66373;52.334;4.806;2023-06-24T11:02:48;102329.97;;;26.14;49.53
77263;BME280;66373;52.334;4.806;2023-06-24T11:05:17;102329.16;;;26.12;49.77
77263;BME280;66373;52.334;4.806;2023-06-24T11:07:45;102323.84;;;26.14;48.97
77263;BME280;66373;52.334;4.806;2023-06-24T11:10:14;102326.34;;;26.18;49.12
77263;BME280;66373;52.334;4.806;2023-06-24T11:12:44;102328.25;;;26.13;49.14
77263;BME280;66373;52.334;4.806;2023-06-24T11:15:14;102336.97;;;26.15;49.20
77263;BME280;66373;52.334;4.806;2023-06-24T11:17:42;102320.66;;;26.02;49.19
77263;BME280;66373;52.334;4.806;2023-06-24T11:20:10;102323.94;;;26.11;48.75
77263;BME280;66373;52.334;4.806;2023-06-24T11:22:39;102308.09;;;26.11;48.82
77263;BME280;66373;52.334;4.806;2023-06-24T11:25:14;102327.28;;;26.16;49.26
77263;BME280;66373;52.334;4.806;2023-06-24T11:27:41;102332.47;;;26.19;48.83
77263;BME280;66373;52.334;4.806;2023-06-24T11:30:09;102330.47;;;26.25;49.71
77263;BME280;66373;52.334;4.806;2023-06-24T11:32:38;102329.63;;;26.25;49.60
77263;BME280;66373;52.334;4.806;2023-06-24T11:35:07;102323.50;;;26.24;49.47
77263;BME280;66373;52.334;4.806;2023-06-24T11:37:35;102332.03;;;26.32;49.48
77263;BME280;66373;52.334;4.806;2023-06-24T11:40:03;102327.72;;;26.30;48.82
77263;BME280;66373;52.334;4.806;2023-06-24T11:42:31;102324.09;;;26.34;49.42
77263;BME280;66373;52.334;4.806;2023-06-24T11:44:59;102314.44;;;26.33;49.46
77263;BME280;66373;52.334;4.806;2023-06-24T11:47:31;102322.97;;;26.41;48.96
77263;BME280;66373;52.334;4.806;2023-06-24T11:50:01;102315.22;;;26.36;48.72
77263;BME280;66373;52.334;4.806;2023-06-24T11:52:38;102310.06;;;26.32;49.32
77263;BME280;66373;52.334;4.806;2023-06-24T11:55:11;102301.72;;;26.46;49.24
77263;BME280;66373;52.334;4.806;2023-06-24T11:57:54;102315.69;;;26.49;48.70
77263;BME280;66373;52.334;4.806;2023-06-24T12:00:24;102304.25;;;26.49;48.03
77263;BME280;66373;52.334;4.806;2023-06-24T12:02:56;102315.25;;;26.61;48.40
77263;BME280;66373;52.334;4.806;2023-06-24T12:05:28;102315.25;;;26.61;48.55
77263;BME280;66373;52.334;4.806;2023-06-24T12:07:57;102232.34;;;26.16;48.10
77263;BME280;66373;52.334;4.806;2023-06-24T12:10:25;102281.53;;;26.45;48.95
77263;BME280;66373;52.334;4.806;2023-06-24T12:12:52;102275.19;;;26.50;48.52
77263;BME280;66373;52.334;4.806;2023-06-24T12:15:20;102307.03;;;26.70;48.34
77263;BME280;66373;52.334;4.806;2023-06-24T12:17:47;102268.19;;;26.49;48.68
77263;BME280;66373;52.334;4.806;2023-06-24T12:20:14;102280.13;;;26.59;48.17
77263;BME280;66373;52.334;4.806;2023-06-24T12:22:47;102316.13;;;26.87;48.08
77263;BME280;66373;52.334;4.806;2023-06-24T12:25:17;102281.81;;;26.62;48.00
77263;BME280;66373;52.334;4.806;2023-06-24T12:27:45;102296.06;;;26.81;47.89
77263;BME280;66373;52.334;4.806;2023-06-24T12:30:13;102261.69;;;26.58;47.78
77263;BME280;66373;52.334;4.806;2023-06-24T12:32:42;102292.50;;;26.82;47.84
77263;BME280;66373;52.334;4.806;2023-06-24T12:35:09;102286.63;;;26.76;48.16
77263;BME280;66373;52.334;4.806;2023-06-24T12:37:37;102273.34;;;26.77;48.20
77263;BME280;66373;52.334;4.806;2023-06-24T12:40:07;102300.00;;;26.96;48.30
77263;BME280;66373;52.334;4.806;2023-06-24T12:42:35;102287.72;;;26.95;47.92
77263;BME280;66373;52.334;4.806;2023-06-24T12:45:04;102308.50;;;27.04;47.94
77263;BME280;66373;52.334;4.806;2023-06-24T12:47:31;102311.03;;;27.07;47.74
77263;BME280;66373;52.334;4.806;2023-06-24T12:49:58;102308.28;;;27.10;47.38
77263;BME280;66373;52.334;4.806;2023-06-24T12:52:26;102308.16;;;27.13;47.15
77263;BME280;66373;52.334;4.806;2023-06-24T12:54:54;102257.94;;;26.90;47.30
77263;BME280;66373;52.334;4.806;2023-06-24T12:57:23;102261.38;;;26.92;46.84
77263;BME280;66373;52.334;4.806;2023-06-24T12:59:50;102254.19;;;26.97;47.50
77263;BME280;66373;52.334;4.806;2023-06-24T13:02:18;102267.94;;;27.05;47.08
77263;BME280;66373;52.334;4.806;2023-06-24T13:04:46;102288.72;;;27.16;46.55
77263;BME280;66373;52.334;4.806;2023-06-24T13:07:13;102304.03;;;27.29;46.85
77263;BME280;66373;52.334;4.806;2023-06-24T13:09:40;102272.91;;;27.14;47.66